createdAt,value
2017-07-15T10:04:00.816Z,0.60
2017-07-15T10:06:27.119Z,0.73
2017-07-15T10:08:53.433Z,0.60
2017-07-15T10:11:19.708Z,0.90
2017-07-15T10:13:46.024Z,0.40
2017-07-15T10:16:12.300Z,0.80
2017-07-15T10:18:38.619Z,0.53
2017-07-15T10:21:04.979Z,0.67
2017-07-15T10:23:32.072Z,0.73
2017-07-15T10:25:59.229Z,0.70
2017-07-15T10:28:25.629Z,1.30
2017-07-15T10:30:52.002Z,0.50
2017-07-15T10:33:18.397Z,0.70
2017-07-15T10:35:44.834Z,0.43
2017-07-15T10:38:11.193Z,0.70
2017-07-15T10:40:38.352Z,0.70
2017-07-15T10:43:04.804Z,1.03
2017-07-15T10:45:31.188Z,0.57
2017-07-15T10:47:58.316Z,1.10
2017-07-15T10:50:24.792Z,0.70
2017-07-15T10:52:51.225Z,0.50
2017-07-15T10:55:17.607Z,0.60
2017-07-15T10:57:44.041Z,0.43
2017-07-15T11:02:57.375Z,0.50
2017-07-15T11:05:23.872Z,0.43
2017-07-15T11:07:50.142Z,0.60
2017-07-15T11:10:17.195Z,0.60
2017-07-15T11:12:43.471Z,0.60
2017-07-15T11:15:09.764Z,0.53
2017-07-15T11:17:36.092Z,0.80
2017-07-15T11:20:03.810Z,0.90
2017-07-15T11:22:30.128Z,0.73
2017-07-15T11:24:56.708Z,0.53
2017-07-15T11:27:23.884Z,0.70
2017-07-15T11:29:50.227Z,0.60
2017-07-15T11:32:16.605Z,0.63
2017-07-15T11:34:44.009Z,0.97
2017-07-15T11:37:11.161Z,0.80
2017-07-15T11:39:37.565Z,0.60
2017-07-15T11:42:03.944Z,0.70
2017-07-15T11:44:31.373Z,1.20
2017-07-15T11:46:57.796Z,0.60
2017-07-15T11:49:24.978Z,0.43
2017-07-15T11:51:51.425Z,0.70
2017-07-15T13:16:14.077Z,0.70
2017-07-15T13:18:40.521Z,0.70
2017-07-15T13:21:06.900Z,0.83
2017-07-15T13:23:33.268Z,0.73
2017-07-15T13:26:01.493Z,0.50
2017-07-15T13:28:27.906Z,0.67
2017-07-15T13:30:54.369Z,0.90
2017-07-15T13:33:21.512Z,0.50
2017-07-15T13:35:47.899Z,0.50
2017-07-15T13:38:14.300Z,0.70
2017-07-15T13:40:40.708Z,0.67
2017-07-15T13:43:07.070Z,0.60
2017-07-15T13:45:33.640Z,0.50
2017-07-15T13:48:00.008Z,0.43
2017-07-15T13:50:26.376Z,0.70
2017-07-15T13:52:52.760Z,0.70
2017-07-15T13:55:19.196Z,0.60
2017-07-15T13:57:45.593Z,0.60
2017-07-15T14:00:12.012Z,0.70
2017-07-15T14:02:38.596Z,0.70
2017-07-15T14:05:05.745Z,1.20
2017-07-15T14:07:32.152Z,0.60
2017-07-15T14:09:59.290Z,0.57
2017-07-15T14:12:25.664Z,0.40
2017-07-15T14:14:52.065Z,0.90
2017-07-15T14:17:18.469Z,0.70
2017-07-15T14:19:45.945Z,0.43
2017-07-15T14:22:13.072Z,0.60
2017-07-15T14:24:39.472Z,0.93
2017-07-15T14:27:05.840Z,1.00
2017-07-15T14:29:32.245Z,0.70
2017-07-15T14:31:59.377Z,0.60
2017-07-15T14:34:25.758Z,0.67
2017-07-15T14:36:52.141Z,0.37
2017-07-15T14:39:18.536Z,0.70
2017-07-15T14:41:45.667Z,0.70
2017-07-15T14:44:12.076Z,0.70
2017-07-15T14:46:39.200Z,0.50
2017-07-15T14:49:05.535Z,0.50
2017-07-15T14:51:32.660Z,0.40
2017-07-15T14:53:59.852Z,0.70
2017-07-15T14:56:26.220Z,0.40
2017-07-15T14:58:52.603Z,0.43
2017-07-15T15:01:18.993Z,0.60
2017-07-15T15:03:45.389Z,0.40
2017-07-15T15:06:11.795Z,0.97
2017-07-15T15:08:38.136Z,0.70
2017-07-15T15:11:04.499Z,1.80
2017-07-15T15:13:30.997Z,0.90
2017-07-15T15:15:57.396Z,0.60
2017-07-15T15:18:23.870Z,0.50
2017-07-15T15:20:50.332Z,0.63
2017-07-15T15:23:16.699Z,0.70
2017-07-15T15:25:43.844Z,0.40
2017-07-15T15:28:10.224Z,0.57
2017-07-15T15:30:36.636Z,0.60
2017-07-15T15:33:03.027Z,1.00
2017-07-15T15:35:29.461Z,0.90
2017-07-15T15:37:55.842Z,0.90
2017-07-15T15:40:22.212Z,0.60
2017-07-15T15:42:49.376Z,0.90
2017-07-15T15:45:15.836Z,0.87
2017-07-15T15:47:42.208Z,1.03
2017-07-15T15:50:08.652Z,0.60
2017-07-15T15:52:35.028Z,1.50
2017-07-15T15:55:01.401Z,0.67
2017-07-15T15:57:27.829Z,0.47
2017-07-15T15:59:54.177Z,0.83
2017-07-15T16:02:20.560Z,0.83
2017-07-15T16:04:46.973Z,0.53
2017-07-15T16:07:13.371Z,1.03
2017-07-15T16:09:39.749Z,1.00
2017-07-15T16:12:06.137Z,0.70
2017-07-15T16:14:32.505Z,1.00
2017-07-15T16:16:58.900Z,0.77
2017-07-15T16:19:25.298Z,0.73
2017-07-15T16:21:51.685Z,1.13
2017-07-15T16:24:18.035Z,0.67
2017-07-15T16:26:44.475Z,0.70
2017-07-15T16:29:11.565Z,0.40
2017-07-15T16:31:37.985Z,0.60
2017-07-15T16:34:05.116Z,0.60
2017-07-15T16:36:31.499Z,0.63
2017-07-15T16:38:57.866Z,0.90
2017-07-15T16:41:24.304Z,0.70
2017-07-15T16:43:51.432Z,1.00
2017-07-15T16:46:18.600Z,0.47
2017-07-15T16:48:45.033Z,0.80
2017-07-15T16:51:11.430Z,0.97
2017-07-15T16:53:37.772Z,1.00
2017-07-15T16:56:04.950Z,1.60
2017-07-15T16:58:31.317Z,0.80
2017-07-15T17:00:57.752Z,0.80
2017-07-15T17:03:24.160Z,0.60
2017-07-15T17:05:50.571Z,0.67
2017-07-15T17:08:16.984Z,0.70
2017-07-15T17:10:43.421Z,0.63
2017-07-15T17:13:09.825Z,0.80
2017-07-15T17:15:36.272Z,1.00
2017-07-15T17:18:02.688Z,1.03
2017-07-15T17:20:29.829Z,0.83
2017-07-15T17:22:56.933Z,0.97
2017-07-15T17:25:24.108Z,1.00
2017-07-15T17:27:50.512Z,1.20
2017-07-15T17:30:17.648Z,0.80
2017-07-15T17:32:44.448Z,1.00
2017-07-15T17:35:10.872Z,0.97
2017-07-15T17:37:37.235Z,0.90
2017-07-15T17:40:03.644Z,1.50
2017-07-15T17:42:30.053Z,0.77
2017-07-15T17:44:56.433Z,1.13
2017-07-15T17:47:22.821Z,1.10
2017-07-15T17:49:49.193Z,1.00
2017-07-15T17:52:16.352Z,1.20
2017-07-15T17:54:42.731Z,1.20
2017-07-15T17:57:09.905Z,1.10
2017-07-15T17:59:36.305Z,1.63
2017-07-15T18:02:02.729Z,1.30
2017-07-15T18:04:29.109Z,1.40
2017-07-15T18:06:56.260Z,1.40
2017-07-15T18:09:22.730Z,1.20
2017-07-15T18:11:49.157Z,1.50
2017-07-15T18:14:16.613Z,1.27
2017-07-15T19:38:39.707Z,1.90
2017-07-15T19:41:07.032Z,2.27
2017-07-15T19:43:33.643Z,2.23
2017-07-15T19:46:00.161Z,2.57
2017-07-15T19:48:26.575Z,2.33
2017-07-15T19:50:53.069Z,2.50
2017-07-15T19:53:20.229Z,2.93
2017-07-15T19:55:46.941Z,3.07
2017-07-15T19:58:14.992Z,2.60
2017-07-15T20:00:41.666Z,3.13
2017-07-15T20:03:09.030Z,2.73
2017-07-15T20:05:35.634Z,3.03
2017-07-15T20:08:02.278Z,2.90
2017-07-15T20:10:28.877Z,3.30
2017-07-15T20:12:55.513Z,2.80
2017-07-15T20:15:22.151Z,2.63
2017-07-15T20:17:48.715Z,2.87
2017-07-15T20:20:15.254Z,2.87
2017-07-15T20:22:41.891Z,3.40
2017-07-15T20:25:08.364Z,3.03
2017-07-15T20:27:34.791Z,2.93
2017-07-15T20:30:01.240Z,3.40
2017-07-15T20:32:27.640Z,2.77
2017-07-15T20:34:54.001Z,3.27
2017-07-15T20:37:21.181Z,3.37
2017-07-15T20:39:47.653Z,3.50
2017-07-15T20:42:13.999Z,3.20
2017-07-15T20:44:40.419Z,3.03
2017-07-15T20:47:06.896Z,3.50
2017-07-15T20:49:33.308Z,3.17
2017-07-15T20:52:05.926Z,2.90
2017-07-15T20:54:32.340Z,3.00
2017-07-15T20:56:58.744Z,2.90
2017-07-15T20:59:25.185Z,2.90
2017-07-15T21:01:51.558Z,3.40
2017-07-15T21:04:17.973Z,2.70
2017-07-15T21:06:44.402Z,3.00
2017-07-15T21:09:11.561Z,3.23
2017-07-15T21:11:38.041Z,3.43
2017-07-15T21:14:04.403Z,2.83
2017-07-15T21:16:30.833Z,3.10
2017-07-15T21:18:57.281Z,2.83
2017-07-15T21:21:23.709Z,2.73
2017-07-15T21:23:50.076Z,3.70
2017-07-15T21:26:16.534Z,3.70
2017-07-15T21:28:42.945Z,3.53
2017-07-15T21:31:09.383Z,2.73
2017-07-15T21:33:36.975Z,3.23
2017-07-15T21:36:03.380Z,2.63
2017-07-15T21:38:29.856Z,2.63
2017-07-15T21:40:56.325Z,2.93
2017-07-15T21:43:22.752Z,2.90
2017-07-15T21:45:49.140Z,2.77
2017-07-15T21:48:15.643Z,2.67
2017-07-15T21:50:42.069Z,2.67
2017-07-15T21:53:08.489Z,2.20
2017-07-15T21:55:34.883Z,2.67
2017-07-15T21:58:01.281Z,2.50
2017-07-15T22:00:29.504Z,2.90
2017-07-15T22:02:55.916Z,3.10
2017-07-15T22:05:22.309Z,2.63
2017-07-15T22:07:48.696Z,3.40
2017-07-15T22:10:15.083Z,2.93
2017-07-15T22:12:41.510Z,3.27
2017-07-15T22:15:07.973Z,3.33
2017-07-15T22:17:34.416Z,3.00
2017-07-15T22:20:00.834Z,3.10
2017-07-15T22:22:27.242Z,3.03
2017-07-15T22:24:53.689Z,2.90
2017-07-15T22:27:20.061Z,3.93
2017-07-15T22:29:46.405Z,2.83
2017-07-15T22:32:12.917Z,2.80
2017-07-15T22:34:39.357Z,3.27
2017-07-15T22:37:06.476Z,3.37
2017-07-15T22:39:32.876Z,3.07
2017-07-15T22:41:59.284Z,3.47
2017-07-15T22:44:28.403Z,3.80
2017-07-15T22:46:55.096Z,3.47
2017-07-15T22:49:21.456Z,3.80
2017-07-15T22:51:48.649Z,3.13
2017-07-15T22:54:15.034Z,3.20
2017-07-15T22:56:41.433Z,4.03
2017-07-15T22:59:07.809Z,4.00
2017-07-15T23:01:34.217Z,3.60
2017-07-15T23:04:00.839Z,3.30
2017-07-15T23:06:27.285Z,3.63
2017-07-15T23:08:54.215Z,3.30
2017-07-15T23:11:20.809Z,4.00
2017-07-15T23:13:47.197Z,3.77
2017-07-15T23:16:13.591Z,3.33
2017-07-15T23:18:40.014Z,4.07
2017-07-15T23:21:06.405Z,4.10
2017-07-15T23:23:32.892Z,4.40
2017-07-15T23:25:59.276Z,3.70
2017-07-15T23:28:25.732Z,4.40
2017-07-15T23:30:52.145Z,4.00
2017-07-15T23:33:18.600Z,4.57
2017-07-15T23:35:45.731Z,4.20
2017-07-15T23:38:12.189Z,3.90
2017-07-15T23:40:38.520Z,4.00
2017-07-15T23:43:04.903Z,4.13
2017-07-15T23:45:31.277Z,4.00
2017-07-15T23:47:57.679Z,3.90
2017-07-15T23:50:24.101Z,4.70
2017-07-15T23:52:51.284Z,4.47
2017-07-15T23:55:17.664Z,4.40
2017-07-15T23:57:44.036Z,4.40
